< Typhoon 196304 1963 Season Typhoon 196306 >
Typhoon 196305 (TRIX)
General InformationTrack Information on Google Maps || Disaster Info.ResourceGoogle EarthGE AnimationAtom FeedGeoJSON
Detalied Best Track (Time Zone = UTC)
Year Month Day Hour Lat. Long. Pressure (hPa) Wind (kt) Class Image Chart
1963 6 15 18 9.0 156.2 1004 0 2 -- Chart
1963 6 16 00 9.0 154.9 1008 0 2 -- Chart
1963 6 16 06 9.0 154.0 1008 0 2 -- Chart
1963 6 16 12 9.0 152.9 1008 0 2 -- Chart
1963 6 16 18 9.1 152.1 1006 0 2 -- Chart
1963 6 17 00 9.1 151.5 1008 0 2 -- Chart
1963 6 17 06 9.1 150.9 1006 0 2 -- Chart
1963 6 17 12 9.1 150.4 1006 0 2 -- Chart
1963 6 17 18 9.2 149.9 1006 0 2 -- Chart
1963 6 18 00 9.3 149.4 1004 0 2 -- Chart
1963 6 18 06 9.4 148.8 1000 0 2 -- Chart
1963 6 18 12 9.6 148.1 1002 0 2 -- Chart
1963 6 18 18 9.7 147.2 1000 0 2 -- Chart
1963 6 19 00 9.7 146.4 1000 0 2 -- Chart
1963 6 19 06 9.8 145.3 1000 0 2 -- Chart
1963 6 19 12 10.0 144.0 1002 0 2 -- Chart
1963 6 19 18 10.5 142.5 1002 0 2 -- Chart
1963 6 20 00 10.7 141.7 1004 0 2 -- Chart
1963 6 20 06 10.9 141.0 1006 0 2 -- Chart
1963 6 20 12 11.5 140.4 1006 0 2 -- Chart
1963 6 20 18 11.9 139.8 1006 0 2 -- Chart
1963 6 21 00 12.4 138.6 1006 0 2 -- Chart
1963 6 21 06 12.5 137.7 1006 0 2 -- Chart
1963 6 21 12 12.4 136.9 1008 0 2 -- Chart
1963 6 21 18 11.8 136.4 1008 0 2 -- Chart
1963 6 22 00 11.1 136.8 1008 0 2 -- Chart
1963 6 22 06 10.2 136.6 1008 0 2 -- Chart
1963 6 22 12 9.8 136.0 1007 0 2 -- Chart
1963 6 22 18 9.8 135.5 1007 0 2 -- Chart
1963 6 23 00 10.1 135.1 1006 0 2 -- Chart
1963 6 23 06 10.5 134.5 1004 0 2 -- Chart
1963 6 23 12 11.0 134.0 1004 0 2 -- Chart
1963 6 23 18 11.2 132.6 1003 0 2 -- Chart
1963 6 24 00 11.0 131.0 1002 0 2 -- Chart
1963 6 24 06 11.0 130.0 1002 0 2 -- Chart
1963 6 24 12 11.1 129.6 1002 0 2 -- Chart
1963 6 24 18 11.0 129.1 1002 0 2 -- Chart
1963 6 25 00 11.0 128.5 1002 0 2 -- Chart
1963 6 25 06 11.2 128.0 1002 0 2 -- Chart
1963 6 25 12 11.7 127.6 1002 0 2 -- Chart
1963 6 25 18 12.3 127.3 1002 0 2 -- Chart
1963 6 26 00 12.9 126.8 1002 0 2 -- Chart
1963 6 26 06 13.5 126.4 1000 0 9 -- Chart
1963 6 26 12 13.8 125.6 1000 0 9 -- Chart
1963 6 26 18 14.3 124.8 990 0 9 -- Chart
1963 6 27 00 14.7 124.0 985 0 9 -- Chart
1963 6 27 06 15.2 123.4 985 0 9 -- Chart
1963 6 27 12 15.6 122.6 985 0 9 -- Chart
1963 6 27 18 16.2 121.9 985 0 9 -- Chart
1963 6 28 00 17.0 121.1 990 0 9 -- Chart
1963 6 28 06 17.4 120.5 990 0 9 -- Chart
1963 6 28 12 17.9 120.0 990 0 9 -- Chart
1963 6 28 18 18.5 119.5 990 0 9 -- Chart
1963 6 29 00 19.1 118.9 995 0 9 -- Chart
1963 6 29 06 19.5 118.3 994 0 9 -- Chart
1963 6 29 12 19.7 117.7 986 0 9 -- Chart
1963 6 29 18 19.8 117.2 984 0 9 -- Chart
1963 6 30 00 20.3 116.7 984 0 9 -- Chart
1963 6 30 06 21.1 116.4 985 0 9 -- Chart
1963 6 30 12 21.7 116.1 985 0 9 -- Chart
1963 6 30 18 22.5 115.9 985 0 9 -- Chart
1963 7 1 00 23.6 115.8 990 0 9 -- Chart
1963 7 1 06 25.5 115.9 994 0 9 -- Chart
1963 7 1 12 27.5 115.9 995 0 9 -- Chart
1963 7 1 18 29.0 115.0 996 0 9 -- Chart
1963 7 2 00 31.0 113.1 998 0 9 -- Chart
1963 7 2 06 32.2 114.0 998 0 6 -- Chart
1963 7 2 12 33.0 115.5 999 0 6 -- Chart
1963 7 2 18 33.5 117.5 1001 0 6 -- Chart
1963 7 3 00 33.9 117.8 1001 0 6 -- Chart
1963 7 3 06 34.6 119.5 1001 0 6 -- Chart
1963 7 3 12 35.5 121.4 1002 0 6 -- Chart
1963 7 3 18 36.2 123.7 1000 0 6 -- Chart
1963 7 4 00 37.0 125.0 1000 0 6 -- Chart
1963 7 4 06 37.8 125.9 1000 0 6 -- Chart
1963 7 4 12 37.5 126.2 1002 0 6 -- Chart
1963 7 4 18 36.6 126.5 1001 0 6 -- Chart
1963 7 5 00 36.0 126.9 1001 0 6 -- Chart
1963 7 5 06 35.5 127.2 1000 0 6 -- Chart
Japan Meteorological Agency Best Track Data | Correction Date : 1989-06-01
< Typhoon 196304 1963 Season Typhoon 196306 >

Help